createdAt,value
2022-09-12T00:01:19.640Z,77.05
2022-09-12T00:03:46.743Z,77.00
2022-09-12T00:06:22.396Z,77.02
2022-09-12T00:08:49.511Z,76.93
2022-09-12T00:11:15.950Z,76.81
2022-09-12T00:13:42.847Z,77.05
2022-09-12T00:16:22.475Z,77.09
2022-09-12T00:18:49.346Z,77.01
2022-09-12T00:21:17.820Z,77.16
2022-09-12T00:23:45.097Z,77.11
2022-09-12T00:26:15.423Z,77.02
2022-09-12T00:28:42.173Z,76.99
2022-09-12T00:31:11.375Z,77.08
2022-09-12T00:33:38.238Z,76.94
2022-09-12T00:36:07.766Z,76.93
2022-09-12T00:38:38.303Z,76.75
2022-09-12T00:41:05.998Z,76.82
2022-09-12T00:43:35.803Z,76.97
2022-09-12T00:46:08.305Z,77.04
2022-09-12T00:48:49.373Z,76.92
2022-09-12T00:51:17.107Z,77.01
2022-09-12T00:53:46.294Z,77.12
2022-09-12T00:56:17.729Z,77.29
2022-09-12T00:58:53.608Z,77.56
2022-09-12T01:01:20.114Z,77.57
2022-09-12T01:03:47.386Z,77.58
2022-09-12T01:06:28.285Z,77.97
2022-09-12T01:08:55.390Z,77.92
2022-09-12T01:11:22.520Z,78.15
2022-09-12T01:13:50.511Z,78.30
2022-09-12T01:16:17.037Z,78.65
2022-09-12T01:19:05.744Z,78.94
2022-09-12T01:21:59.823Z,79.06
2022-09-12T01:25:18.930Z,79.04
2022-09-12T01:28:03.360Z,79.22
2022-09-12T01:30:32.684Z,79.05
2022-09-12T01:33:33.610Z,79.12
2022-09-12T01:36:21.983Z,79.09
2022-09-12T01:38:53.107Z,79.44
2022-09-12T01:41:27.991Z,79.61
2022-09-12T01:44:10.125Z,79.55
2022-09-12T01:46:53.765Z,79.79
2022-09-12T01:49:27.960Z,79.98
2022-09-12T01:52:09.208Z,79.61
2022-09-12T01:54:45.327Z,79.48
2022-09-12T01:57:28.458Z,79.60
2022-09-12T02:00:01.345Z,79.28
2022-09-12T02:02:43.802Z,79.34
2022-09-12T02:05:27.993Z,79.14
2022-09-12T02:08:10.464Z,79.32
2022-09-12T02:10:55.350Z,79.42
2022-09-12T02:13:32.059Z,79.42
2022-09-12T02:16:06.986Z,79.32
2022-09-12T02:18:36.514Z,79.37
2022-09-12T02:21:05.831Z,79.54
2022-09-12T02:23:34.651Z,79.74
2022-09-12T02:26:11.250Z,79.79
2022-09-12T02:28:42.520Z,79.77
2022-09-12T02:31:36.905Z,79.83
2022-09-12T02:34:10.057Z,79.89
2022-09-12T02:36:55.478Z,79.72
2022-09-12T02:39:21.800Z,79.70
2022-09-12T02:41:57.202Z,79.84
2022-09-12T02:44:25.433Z,79.81
2022-09-12T02:46:56.611Z,80.11
2022-09-12T02:49:23.976Z,79.99
2022-09-12T02:51:50.990Z,79.95
2022-09-12T02:54:19.084Z,79.68
2022-09-12T02:56:46.036Z,79.59
2022-09-12T02:59:17.807Z,79.52
2022-09-12T03:01:50.057Z,79.63
2022-09-12T03:04:30.126Z,79.59
2022-09-12T03:06:56.363Z,79.91
2022-09-12T03:09:36.486Z,80.02
2022-09-12T03:12:11.904Z,80.07
2022-09-12T03:15:01.424Z,80.01
2022-09-12T03:17:42.209Z,80.54
2022-09-12T03:20:40.814Z,80.46
2022-09-12T03:23:19.044Z,80.50
2022-09-12T03:25:54.406Z,80.56
2022-09-12T03:28:22.566Z,80.45
2022-09-12T03:30:51.455Z,80.27
2022-09-12T03:33:21.146Z,80.32
2022-09-12T03:35:51.467Z,80.28
2022-09-12T03:38:18.734Z,80.35
2022-09-12T03:40:50.297Z,80.23
2022-09-12T03:43:19.393Z,80.39
2022-09-12T03:45:50.635Z,80.14
2022-09-12T03:48:17.010Z,80.04
2022-09-12T03:50:43.383Z,80.26
2022-09-12T03:53:12.090Z,80.23
2022-09-12T03:55:41.595Z,80.32
2022-09-12T03:58:07.938Z,80.57
2022-09-12T04:00:34.311Z,80.52
2022-09-12T04:03:04.810Z,80.48
2022-09-12T04:05:31.245Z,80.37
2022-09-12T04:07:57.592Z,80.48
2022-09-12T04:10:23.938Z,80.31
2022-09-12T04:12:50.325Z,80.49
2022-09-12T04:15:19.704Z,80.46
2022-09-12T04:17:46.044Z,80.31
2022-09-12T04:20:12.398Z,80.10
2022-09-12T04:22:38.936Z,80.12
2022-09-12T04:25:06.066Z,79.96
2022-09-12T04:27:32.581Z,80.11
2022-09-12T04:30:00.257Z,80.24
2022-09-12T04:32:26.706Z,80.16
2022-09-12T04:34:53.054Z,80.49
2022-09-12T04:37:23.547Z,80.38
2022-09-12T04:39:50.686Z,80.74
2022-09-12T04:42:17.583Z,80.40
2022-09-12T04:44:43.943Z,80.37
2022-09-12T04:47:12.923Z,80.38
2022-09-12T04:49:39.233Z,80.31
2022-09-12T04:52:05.614Z,80.39
2022-09-12T04:54:32.536Z,80.51
2022-09-12T04:56:59.502Z,80.53
2022-09-12T04:59:26.592Z,80.46
2022-09-12T05:01:53.240Z,80.46
2022-09-12T05:04:19.664Z,80.46
2022-09-12T05:06:47.383Z,80.36
2022-09-12T05:09:19.486Z,80.46
2022-09-12T05:12:03.122Z,80.53
2022-09-12T05:14:32.365Z,80.59
2022-09-12T05:17:01.178Z,80.61
2022-09-12T05:19:28.602Z,80.69
2022-09-12T05:21:54.958Z,80.72
2022-09-12T05:24:21.330Z,80.86
2022-09-12T05:26:47.692Z,80.84
2022-09-12T05:29:14.519Z,80.74
2022-09-12T05:31:41.455Z,80.98
2022-09-12T05:34:09.032Z,80.89
2022-09-12T05:36:37.415Z,80.90
2022-09-12T05:39:04.570Z,81.16
2022-09-12T05:41:33.463Z,80.93
2022-09-12T05:44:02.366Z,80.78
2022-09-12T05:46:34.660Z,80.60
2022-09-12T05:49:07.997Z,80.99
2022-09-12T05:51:37.994Z,81.27
2022-09-12T05:54:06.216Z,81.46
2022-09-12T05:56:38.773Z,81.41
2022-09-12T05:59:12.016Z,81.24
2022-09-12T06:01:38.631Z,81.00
2022-09-12T06:04:06.948Z,81.07
2022-09-12T06:06:37.472Z,81.21
2022-09-12T06:09:05.581Z,81.40
2022-09-12T06:11:33.700Z,81.00
2022-09-12T06:14:02.368Z,81.02
2022-09-12T06:16:31.390Z,81.21
2022-09-12T06:19:00.544Z,80.78
2022-09-12T06:21:31.185Z,80.87
2022-09-12T06:23:58.815Z,80.82
2022-09-12T06:26:26.167Z,80.70
2022-09-12T06:28:54.927Z,80.84
2022-09-12T06:31:25.467Z,81.39
2022-09-12T06:33:53.680Z,80.11
2022-09-12T06:36:26.052Z,78.69
2022-09-12T06:39:04.247Z,77.11
2022-09-12T06:41:31.697Z,77.29
2022-09-12T06:43:59.810Z,77.30
2022-09-12T06:46:27.191Z,76.92
2022-09-12T06:48:55.529Z,76.98
2022-09-12T06:51:21.926Z,76.40
2022-09-12T06:53:49.041Z,75.99
2022-09-12T06:56:21.316Z,76.19
2022-09-12T06:58:49.377Z,75.67
2022-09-12T07:01:18.325Z,75.58
2022-09-12T07:03:49.077Z,75.06
2022-09-12T07:06:17.287Z,74.91
2022-09-12T07:08:43.905Z,74.88
2022-09-12T07:11:17.698Z,74.38
2022-09-12T07:13:47.062Z,74.43
2022-09-12T07:16:19.218Z,74.41
2022-09-12T07:18:54.798Z,73.41
2022-09-12T07:21:21.743Z,71.71
2022-09-12T07:23:48.758Z,68.04
2022-09-12T07:26:17.767Z,65.06
2022-09-12T07:28:44.544Z,61.29
2022-09-12T07:31:16.513Z,59.18
2022-09-12T07:33:44.351Z,57.28
2022-09-12T07:36:13.622Z,55.37
2022-09-12T07:38:41.065Z,52.77
2022-09-12T07:41:22.804Z,50.47
2022-09-12T07:43:53.313Z,49.70
2022-09-12T07:46:20.345Z,49.13
2022-09-12T07:48:51.518Z,48.36
2022-09-12T07:51:19.031Z,47.48
2022-09-12T07:53:45.757Z,45.96
2022-09-12T07:56:13.459Z,44.39
2022-09-12T07:58:41.851Z,43.64
2022-09-12T08:01:16.804Z,42.28
2022-09-12T08:03:45.183Z,41.64
2022-09-12T08:06:20.193Z,41.44
2022-09-12T08:08:47.866Z,41.53
2022-09-12T08:11:17.106Z,41.54
2022-09-12T08:13:44.183Z,40.51
2022-09-12T08:16:15.219Z,40.47
2022-09-12T08:18:42.085Z,40.26
2022-09-12T08:21:12.954Z,39.50
2022-09-12T08:23:39.437Z,38.61
2022-09-12T08:26:06.596Z,38.27
2022-09-12T08:28:35.023Z,38.30
2022-09-12T08:31:09.482Z,37.99
2022-09-12T08:33:40.509Z,36.81
2022-09-12T08:36:08.558Z,36.73
2022-09-12T08:38:36.626Z,36.55
2022-09-12T08:41:14.398Z,36.11
2022-09-12T08:43:57.498Z,36.97
2022-09-12T08:46:53.221Z,36.96
2022-09-12T08:49:29.556Z,36.59
2022-09-12T08:51:59.377Z,36.61
2022-09-12T08:54:29.619Z,36.59
2022-09-12T08:57:03.067Z,35.90
2022-09-12T08:59:41.573Z,35.93
2022-09-12T09:02:48.847Z,35.69
2022-09-12T09:08:13.578Z,34.63
2022-09-12T09:11:04.290Z,34.14
2022-09-12T09:14:05.452Z,33.86
2022-09-12T09:16:42.691Z,33.63
2022-09-12T09:19:37.562Z,32.75
2022-09-12T09:22:13.681Z,32.67
2022-09-12T09:24:46.572Z,32.30
2022-09-12T09:27:40.769Z,32.30
2022-09-12T09:30:19.684Z,32.32
2022-09-12T09:32:53.542Z,32.70
2022-09-12T09:35:36.681Z,32.70
2022-09-12T09:38:21.697Z,32.94
2022-09-12T09:41:18.934Z,32.71
2022-09-12T09:43:46.456Z,33.37
2022-09-12T09:46:14.039Z,33.59
2022-09-12T09:48:45.701Z,33.53
2022-09-12T09:51:15.539Z,33.67
2022-09-12T09:53:50.304Z,33.51
2022-09-12T09:56:37.033Z,33.67
2022-09-12T09:59:16.976Z,33.78
2022-09-12T10:01:57.600Z,34.01
2022-09-12T10:04:41.095Z,33.69
2022-09-12T10:07:19.200Z,34.15
2022-09-12T10:10:03.641Z,34.23
2022-09-12T10:12:30.000Z,34.60
2022-09-12T10:15:00.519Z,34.26
2022-09-12T10:17:41.395Z,34.45
2022-09-12T10:20:39.474Z,34.37
2022-09-12T10:23:35.991Z,34.63
2022-09-12T10:26:08.387Z,33.99
2022-09-12T10:28:46.972Z,34.45
2022-09-12T10:31:28.793Z,35.15
2022-09-12T10:34:01.465Z,35.12
2022-09-12T10:36:39.571Z,34.83
2022-09-12T10:39:06.957Z,35.25
2022-09-12T10:41:39.611Z,34.23
2022-09-12T10:44:14.572Z,33.61
2022-09-12T10:46:41.317Z,33.61
2022-09-12T10:49:38.183Z,34.28
2022-09-12T10:52:24.867Z,33.97
2022-09-12T10:54:52.247Z,34.09
2022-09-12T10:57:30.962Z,34.60
2022-09-12T11:00:14.968Z,34.31
2022-09-12T11:02:51.303Z,34.01
2022-09-12T11:05:37.318Z,34.53
2022-09-12T11:08:11.977Z,35.57
2022-09-12T11:10:42.542Z,35.86
2022-09-12T11:13:29.919Z,35.91
2022-09-12T11:16:15.145Z,36.05
2022-09-12T11:18:47.954Z,36.48
2022-09-12T11:21:40.018Z,36.34
2022-09-12T11:24:15.332Z,35.61
2022-09-12T11:27:07.812Z,35.16
2022-09-12T11:30:01.791Z,34.22
2022-09-12T11:32:46.577Z,34.68
2022-09-12T11:35:17.612Z,34.89
2022-09-12T11:38:12.996Z,34.29
2022-09-12T11:40:55.712Z,34.20
2022-09-12T11:43:33.158Z,34.64
2022-09-12T11:46:10.940Z,34.55
2022-09-12T11:49:12.229Z,34.19
2022-09-12T11:51:42.878Z,33.49
2022-09-12T11:54:25.627Z,32.76
2022-09-12T11:57:03.091Z,32.43
2022-09-12T11:59:44.767Z,32.76
2022-09-12T12:02:19.794Z,33.00
2022-09-12T12:05:16.335Z,32.41
2022-09-12T12:07:52.785Z,33.50
2022-09-12T12:10:29.600Z,32.91
2022-09-12T12:12:58.890Z,33.58
2022-09-12T12:15:26.576Z,33.95
2022-09-12T12:18:17.895Z,33.45
2022-09-12T12:20:44.413Z,33.11
2022-09-12T12:23:22.827Z,32.20
2022-09-12T12:26:34.320Z,31.72
2022-09-12T12:29:01.288Z,31.20
2022-09-12T12:31:28.006Z,31.06
2022-09-12T12:34:00.441Z,31.09
2022-09-12T12:36:36.262Z,30.99
2022-09-12T12:39:31.592Z,31.01
2022-09-12T12:42:02.255Z,31.10
2022-09-12T12:44:55.008Z,31.66
2022-09-12T12:47:44.397Z,32.32
2022-09-12T12:50:10.838Z,32.27
2022-09-12T12:52:51.890Z,32.53
2022-09-12T12:55:29.298Z,32.58
2022-09-12T12:58:02.145Z,32.48
2022-09-12T13:00:42.849Z,32.69
2022-09-12T13:03:45.273Z,32.55
2022-09-12T13:06:44.791Z,32.35
2022-09-12T13:09:40.226Z,32.06
2022-09-12T13:12:12.480Z,31.95
2022-09-12T13:14:54.890Z,32.01
2022-09-12T13:17:29.562Z,32.28
2022-09-12T13:20:29.598Z,32.74
2022-09-12T13:22:57.263Z,33.50
2022-09-12T13:25:35.609Z,34.54
2022-09-12T13:28:07.649Z,34.19
2022-09-12T13:30:37.775Z,34.23
2022-09-12T13:33:20.557Z,34.92
2022-09-12T13:36:18.729Z,33.64
2022-09-12T13:39:16.071Z,33.38
2022-09-12T13:42:11.438Z,34.04
2022-09-12T13:45:03.175Z,34.50
2022-09-12T13:47:32.784Z,34.41
2022-09-12T13:50:02.682Z,33.34
2022-09-12T13:52:33.181Z,32.79
2022-09-12T13:55:04.446Z,33.11
2022-09-12T13:57:41.342Z,33.19
2022-09-12T14:00:20.369Z,33.83
2022-09-12T14:02:50.247Z,33.63
2022-09-12T14:05:26.028Z,34.00
2022-09-12T14:07:55.579Z,34.33
2022-09-12T14:10:28.579Z,34.15
2022-09-12T14:13:05.550Z,33.84
2022-09-12T14:15:36.032Z,33.56
2022-09-12T14:18:05.757Z,33.82
2022-09-12T14:20:37.139Z,33.31
2022-09-12T14:23:29.963Z,33.15
2022-09-12T14:25:59.909Z,33.32
2022-09-12T14:28:30.569Z,33.20
2022-09-12T14:31:01.971Z,33.20
2022-09-12T14:33:39.110Z,33.63
2022-09-12T14:36:13.009Z,33.54
2022-09-12T14:38:48.737Z,33.35
2022-09-12T14:41:24.069Z,32.96
2022-09-12T14:43:55.334Z,33.18
2022-09-12T14:46:28.380Z,33.14
2022-09-12T14:49:01.939Z,33.27
2022-09-12T14:51:38.211Z,33.30
2022-09-12T14:54:04.848Z,33.11
2022-09-12T14:56:40.984Z,32.89
2022-09-12T14:59:40.849Z,33.24
2022-09-12T15:02:22.397Z,33.15
2022-09-12T15:05:15.071Z,33.25
2022-09-12T15:07:56.003Z,33.74
2022-09-12T15:10:37.678Z,33.90
2022-09-12T15:13:09.798Z,34.47
2022-09-12T15:15:37.676Z,35.60
2022-09-12T15:18:06.763Z,36.09
2022-09-12T15:20:36.469Z,36.05
2022-09-12T15:23:03.240Z,35.70
2022-09-12T15:25:29.660Z,35.41
2022-09-12T15:27:56.386Z,35.84
2022-09-12T15:30:22.769Z,35.62
2022-09-12T15:32:49.237Z,35.93
2022-09-12T15:35:22.480Z,35.70
2022-09-12T15:37:49.721Z,35.62
2022-09-12T15:40:17.335Z,35.12
2022-09-12T15:42:43.784Z,35.55
2022-09-12T15:45:20.252Z,35.95
2022-09-12T15:47:49.763Z,35.75
2022-09-12T15:50:16.325Z,36.11
2022-09-12T15:52:42.688Z,35.79
2022-09-12T15:55:17.826Z,35.54
2022-09-12T15:57:47.126Z,35.80
2022-09-12T16:00:15.031Z,35.69
2022-09-12T16:02:45.831Z,35.58
2022-09-12T16:05:18.997Z,35.69
2022-09-12T16:07:45.425Z,35.39
2022-09-12T16:10:17.447Z,35.58
2022-09-12T16:12:44.452Z,36.00
2022-09-12T16:15:20.484Z,36.12
2022-09-12T16:17:47.284Z,36.06
2022-09-12T16:20:14.229Z,36.10
2022-09-12T16:22:41.373Z,36.47
2022-09-12T16:25:08.893Z,36.51
2022-09-12T16:27:36.337Z,36.59
2022-09-12T16:30:04.793Z,36.99
2022-09-12T16:32:31.537Z,37.24
2022-09-12T16:34:57.983Z,37.24
2022-09-12T16:37:25.218Z,37.47
2022-09-12T16:39:52.345Z,37.25
2022-09-12T16:42:19.394Z,37.20
2022-09-12T16:44:46.993Z,37.02
2022-09-12T16:47:19.163Z,36.99
2022-09-12T16:49:56.770Z,37.24
2022-09-12T16:52:23.817Z,37.32
2022-09-12T16:54:50.330Z,37.85
2022-09-12T16:57:16.836Z,37.48
2022-09-12T16:59:43.530Z,37.65
2022-09-12T17:02:21.785Z,38.29
2022-09-12T17:04:48.995Z,38.07
2022-09-12T17:07:15.355Z,38.13
2022-09-12T17:09:45.051Z,38.50
2022-09-12T17:12:14.049Z,38.41
2022-09-12T17:14:40.574Z,38.78
2022-09-12T17:17:07.224Z,38.78
2022-09-12T17:19:33.653Z,38.83
2022-09-12T17:22:00.012Z,39.16
2022-09-12T17:24:26.694Z,39.06
2022-09-12T17:26:53.668Z,39.15
2022-09-12T17:29:21.019Z,39.15
2022-09-12T17:31:48.075Z,39.25
2022-09-12T17:34:15.149Z,39.27
2022-09-12T17:36:57.449Z,39.67
2022-09-12T17:39:23.854Z,39.30
2022-09-12T17:41:51.963Z,39.74
2022-09-12T17:44:19.204Z,39.81
2022-09-12T17:46:45.783Z,39.92
2022-09-12T17:49:15.111Z,40.17
2022-09-12T17:51:41.633Z,40.13
2022-09-12T17:54:11.898Z,40.25
2022-09-12T17:56:39.109Z,40.48
2022-09-12T17:59:07.496Z,40.66
2022-09-12T18:01:52.809Z,40.88
2022-09-12T18:04:20.063Z,40.75
2022-09-12T18:06:48.739Z,41.06
2022-09-12T18:09:21.222Z,41.37
2022-09-12T18:11:52.018Z,41.69
2022-09-12T18:14:19.384Z,41.72
2022-09-12T18:16:46.926Z,41.81
2022-09-12T18:19:13.885Z,42.01
2022-09-12T18:21:42.043Z,42.55
2022-09-12T18:24:09.978Z,42.29
2022-09-12T18:26:38.701Z,43.29
2022-09-12T18:29:05.101Z,43.45
2022-09-12T18:31:31.739Z,43.93
2022-09-12T18:34:02.553Z,44.55
2022-09-12T18:36:30.801Z,43.99
2022-09-12T18:38:58.772Z,44.33
2022-09-12T18:41:28.904Z,44.99
2022-09-12T18:44:01.279Z,45.12
2022-09-12T18:46:30.075Z,45.48
2022-09-12T18:48:57.921Z,45.61
2022-09-12T18:51:31.313Z,46.05
2022-09-12T18:54:00.087Z,47.05
2022-09-12T18:56:32.250Z,47.67
2022-09-12T18:59:00.400Z,48.31
2022-09-12T19:01:32.091Z,48.46
2022-09-12T19:04:00.771Z,48.69
2022-09-12T19:06:29.602Z,49.05
2022-09-12T19:09:01.694Z,49.55
2022-09-12T19:11:30.370Z,50.10
2022-09-12T19:13:57.065Z,50.43
2022-09-12T19:16:26.692Z,50.71
2022-09-12T19:18:55.596Z,50.87
2022-09-12T19:21:28.159Z,50.45
2022-09-12T19:24:01.322Z,50.38
2022-09-12T19:26:27.853Z,50.34
2022-09-12T19:28:55.370Z,50.59
2022-09-12T19:31:23.190Z,50.41
2022-09-12T19:33:50.506Z,50.84
2022-09-12T19:36:43.847Z,51.03
2022-09-12T19:39:07.269Z,51.40
2022-09-12T19:41:34.078Z,51.30
2022-09-12T19:44:03.148Z,51.37
2022-09-12T19:46:29.621Z,51.59
2022-09-12T19:48:55.989Z,51.80
2022-09-12T19:51:23.986Z,52.00
2022-09-12T19:53:51.210Z,51.80
2022-09-12T19:56:17.651Z,52.37
2022-09-12T19:58:46.063Z,52.66
2022-09-12T20:01:15.648Z,52.86
2022-09-12T20:03:45.134Z,53.03
2022-09-12T20:06:14.324Z,53.24
2022-09-12T20:08:42.281Z,53.17
2022-09-12T20:11:09.957Z,53.61
2022-09-12T20:13:36.366Z,53.51
2022-09-12T20:16:11.672Z,54.03
2022-09-12T20:18:38.463Z,53.94
2022-09-12T20:21:12.935Z,54.56
2022-09-12T20:23:40.755Z,54.38
2022-09-12T20:26:08.669Z,54.83
2022-09-12T20:28:36.530Z,54.63
2022-09-12T20:31:05.696Z,55.09
2022-09-12T20:33:32.224Z,55.26
2022-09-12T20:36:07.232Z,55.55
2022-09-12T20:38:33.859Z,55.78
2022-09-12T20:41:04.742Z,55.78
2022-09-12T20:43:31.342Z,55.69
2022-09-12T20:45:57.885Z,55.95
2022-09-12T20:48:24.758Z,56.06
2022-09-12T20:50:51.177Z,56.00
2022-09-12T20:53:17.565Z,56.21
2022-09-12T20:55:53.374Z,55.85
2022-09-12T20:58:21.168Z,55.90
2022-09-12T21:00:48.247Z,55.96
2022-09-12T21:03:20.578Z,56.21
2022-09-12T21:05:47.534Z,56.28
2022-09-12T21:08:14.804Z,56.73
2022-09-12T21:10:43.956Z,56.54
2022-09-12T21:13:11.393Z,56.40
2022-09-12T21:15:39.162Z,56.23
2022-09-12T21:18:06.556Z,56.25
2022-09-12T21:20:33.165Z,56.76
2022-09-12T21:23:00.315Z,57.06
2022-09-12T21:25:30.980Z,56.87
2022-09-12T21:27:58.248Z,56.93
2022-09-12T21:30:24.580Z,57.13
2022-09-12T21:32:51.742Z,56.88
2022-09-12T21:35:18.248Z,57.23
2022-09-12T21:37:46.911Z,56.96
2022-09-12T21:40:13.610Z,57.12
2022-09-12T21:42:40.024Z,57.25
2022-09-12T21:45:06.674Z,57.32
2022-09-12T21:47:33.077Z,57.61
2022-09-12T21:49:59.450Z,57.67
2022-09-12T21:52:25.987Z,57.46
2022-09-12T21:54:52.349Z,57.90
2022-09-12T21:57:22.163Z,57.89
2022-09-12T21:59:48.817Z,57.91
2022-09-12T22:02:15.819Z,57.96
2022-09-12T22:04:44.648Z,57.93
2022-09-12T22:07:11.250Z,58.20
2022-09-12T22:09:41.275Z,56.17
2022-09-12T22:12:08.660Z,56.26
2022-09-12T22:14:35.041Z,56.32
2022-09-12T22:17:01.855Z,55.46
2022-09-12T22:19:30.759Z,54.40
2022-09-12T22:22:16.339Z,54.25
2022-09-12T22:24:43.203Z,53.95
2022-09-12T22:27:09.822Z,53.93
2022-09-12T22:29:37.173Z,53.53
2022-09-12T22:32:04.010Z,53.31
2022-09-12T22:34:30.397Z,53.34
2022-09-12T22:36:57.431Z,52.66
2022-09-12T22:39:23.794Z,52.81
2022-09-12T22:41:50.828Z,53.19
2022-09-12T22:44:17.714Z,53.17
2022-09-12T22:46:44.099Z,53.19
2022-09-12T22:49:19.649Z,53.59
2022-09-12T22:51:46.063Z,53.39
2022-09-12T22:54:14.091Z,53.54
2022-09-12T22:56:40.644Z,54.09
2022-09-12T23:01:35.396Z,55.11
2022-09-12T23:04:03.415Z,55.69
2022-09-12T23:06:29.742Z,56.28
2022-09-12T23:08:58.942Z,56.62
2022-09-12T23:11:26.394Z,56.83
2022-09-12T23:13:52.708Z,56.83
2022-09-12T23:16:26.235Z,57.19
2022-09-12T23:18:52.681Z,57.26
2022-09-12T23:21:21.178Z,57.50
2022-09-12T23:23:48.400Z,57.93
2022-09-12T23:26:17.150Z,58.25
2022-09-12T23:28:49.799Z,58.52
2022-09-12T23:31:17.138Z,58.73
2022-09-12T23:33:44.222Z,58.99
2022-09-12T23:36:14.675Z,59.36
2022-09-12T23:38:45.936Z,59.61
2022-09-12T23:41:13.542Z,59.54
2022-09-12T23:43:39.955Z,59.24
2022-09-12T23:46:07.263Z,59.17
2022-09-12T23:48:34.172Z,59.20
2022-09-12T23:51:02.000Z,59.22
2022-09-12T23:53:29.461Z,59.53
2022-09-12T23:55:55.841Z,59.79
2022-09-12T23:58:25.666Z,60.03
